Time;durP1;ratioP1;P1;durP2;ratioP2;P2;SDS_P1;SDS_P2;PMS_P1;PMS_P2;Temp;Humidity;BMP_temperature;BMP_pressure;BME280_temperature;BME280_humidity;BME280_pressure;Samples;Min_cycle;Max_cycle;Signal;HPM_P1;HPM_P2
2022/08/29 00:00:11;;;;;;;;;2.00;2.00;;;;;;;;5074623;28;45277;-70
2022/08/29 00:02:37;;;;;;;;;2.00;2.00;;;;;;;;5076614;27;45373;-70
2022/08/29 00:05:02;;;;;;;;;1.00;1.00;;;;;;;;5075343;28;45689;-71
2022/08/29 00:07:27;;;;;;;;;2.33;1.00;;;;;;;;5076638;28;45823;-70
2022/08/29 00:09:53;;;;;;;;;2.00;2.00;;;;;;;;5075641;28;45755;-70
2022/08/29 00:12:18;;;;;;;;;1.33;1.33;;;;;;;;5058469;28;45975;-72
2022/08/29 00:14:43;;;;;;;;;1.67;1.67;;;;;;;;5062974;27;45701;-70
2022/08/29 00:17:09;;;;;;;;;1.00;1.00;;;;;;;;5065585;27;45478;-70
2022/08/29 00:19:34;;;;;;;;;2.00;2.00;;;;;;;;5063716;27;46139;-69
2022/08/29 00:21:59;;;;;;;;;3.67;1.00;;;;;;;;5083082;27;45389;-70
2022/08/29 00:24:24;;;;;;;;;1.67;1.33;;;;;;;;5068262;27;45580;-71
2022/08/29 00:26:50;;;;;;;;;0.33;0.33;;;;;;;;5058107;27;45345;-70
2022/08/29 00:29:15;;;;;;;;;2.00;2.00;;;;;;;;5070909;28;46548;-70
2022/08/29 00:31:40;;;;;;;;;2.00;2.00;;;;;;;;5058167;28;45735;-71
2022/08/29 00:34:05;;;;;;;;;1.00;1.00;;;;;;;;5043276;28;45310;-70
2022/08/29 00:36:31;;;;;;;;;2.00;2.00;;;;;;;;5074899;28;45534;-70
2022/08/29 00:38:56;;;;;;;;;1.00;1.00;;;;;;;;5065458;28;45314;-70
2022/08/29 00:41:21;;;;;;;;;1.00;0.00;;;;;;;;5056730;28;45371;-69
2022/08/29 00:43:47;;;;;;;;;2.67;2.00;;;;;;;;5075023;28;45297;-69
2022/08/29 00:46:21;;;;;;;;;2.00;1.00;;;;;;;;5069464;28;45269;-68
2022/08/29 00:48:56;;;;;;;;;1.00;1.00;;;;;;;;5067872;27;47090;-69
2022/08/29 00:51:21;;;;;;;;;2.00;2.00;;;;;;;;5058448;28;45395;-70
2022/08/29 00:53:48;;;;;;;;;2.00;1.00;;;;;;;;5067907;27;45356;-68
2022/08/29 00:56:15;;;;;;;;;1.00;1.00;;;;;;;;5069355;27;45884;-69
2022/08/29 00:58:44;;;;;;;;;0.33;0.33;;;;;;;;5055782;28;47195;-71
2022/08/29 01:01:09;;;;;;;;;2.00;1.00;;;;;;;;5067893;27;45527;-69
2022/08/29 01:03:35;;;;;;;;;1.33;1.33;;;;;;;;5070387;28;45431;-69
2022/08/29 01:06:02;;;;;;;;;3.00;3.00;;;;;;;;5072097;28;45835;-69
2022/08/29 01:08:27;;;;;;;;;1.33;1.00;;;;;;;;5074563;27;46129;-70
2022/08/29 01:13:39;;;;;;;;;2.67;2.00;;;;;;;;5074669;28;45430;-70
2022/08/29 01:16:05;;;;;;;;;1.00;1.00;;;;;;;;5056530;28;46135;-68
2022/08/29 01:18:33;;;;;;;;;2.67;1.67;;;;;;;;5074482;28;46207;-70
2022/08/29 01:21:15;;;;;;;;;2.00;2.00;;;;;;;;5074319;28;45734;-70
2022/08/29 01:23:44;;;;;;;;;2.00;2.00;;;;;;;;5069291;28;45512;-70
2022/08/29 01:26:10;;;;;;;;;1.00;1.00;;;;;;;;5071807;27;45539;-68
2022/08/29 01:28:38;;;;;;;;;1.00;1.00;;;;;;;;5075049;28;46396;-71
2022/08/29 01:31:05;;;;;;;;;1.00;1.00;;;;;;;;5071147;28;45748;-68
2022/08/29 01:33:36;;;;;;;;;1.67;1.67;;;;;;;;5056537;28;45426;-70
2022/08/29 01:36:02;;;;;;;;;1.00;1.00;;;;;;;;5061970;28;45267;-69
2022/08/29 01:38:27;;;;;;;;;1.67;1.00;;;;;;;;5070042;28;46449;-69
2022/08/29 01:40:57;;;;;;;;;3.00;3.00;;;;;;;;5056489;28;45374;-70
2022/08/29 01:43:23;;;;;;;;;2.33;1.00;;;;;;;;5074744;28;45727;-70
2022/08/29 01:45:49;;;;;;;;;4.00;1.00;;;;;;;;5070426;28;45680;-71
2022/08/29 01:48:15;;;;;;;;;2.00;2.00;;;;;;;;5046661;28;47202;-70
2022/08/29 01:50:40;;;;;;;;;4.67;1.67;;;;;;;;5074326;28;45371;-69
2022/08/29 01:53:07;;;;;;;;;0.67;0.67;;;;;;;;5072208;28;45281;-70
2022/08/29 01:55:32;;;;;;;;;2.00;1.00;;;;;;;;5072635;28;46044;-73
2022/08/29 01:57:57;;;;;;;;;2.00;1.00;;;;;;;;5073899;28;46275;-70
2022/08/29 02:00:22;;;;;;;;;2.33;1.00;;;;;;;;5064830;27;45688;-70
2022/08/29 02:02:48;;;;;;;;;2.00;1.00;;;;;;;;5071187;27;45810;-70
2022/08/29 02:05:14;;;;;;;;;1.00;1.00;;;;;;;;5075093;27;46170;-70
2022/08/29 02:07:39;;;;;;;;;1.67;1.67;;;;;;;;5074739;28;45746;-71
2022/08/29 02:10:05;;;;;;;;;3.67;3.67;;;;;;;;5070180;28;45609;-70
2022/08/29 02:12:31;;;;;;;;;3.00;2.00;;;;;;;;5074489;27;45325;-71
2022/08/29 02:14:56;;;;;;;;;2.33;2.00;;;;;;;;5052424;28;46883;-70
2022/08/29 02:17:23;;;;;;;;;0.00;0.00;;;;;;;;5053217;27;47804;-70
2022/08/29 02:19:48;;;;;;;;;1.33;1.33;;;;;;;;5068439;28;45692;-71
2022/08/29 02:22:14;;;;;;;;;3.67;1.00;;;;;;;;5051026;28;44879;-71
2022/08/29 02:24:39;;;;;;;;;3.00;2.00;;;;;;;;5064517;28;46088;-69
2022/08/29 02:27:05;;;;;;;;;1.67;1.67;;;;;;;;5063255;28;45960;-71
2022/08/29 02:29:30;;;;;;;;;1.00;0.67;;;;;;;;5074065;28;45666;-70
2022/08/29 02:31:55;;;;;;;;;2.00;2.00;;;;;;;;5056028;28;45367;-70
2022/08/29 02:34:22;;;;;;;;;3.67;1.33;;;;;;;;5074127;27;45767;-71
2022/08/29 02:36:47;;;;;;;;;4.00;2.00;;;;;;;;5055379;28;46190;-70
2022/08/29 02:39:12;;;;;;;;;1.67;1.67;;;;;;;;5046332;28;45636;-70
2022/08/29 02:41:38;;;;;;;;;2.33;1.00;;;;;;;;5070744;27;45340;-72
2022/08/29 02:44:03;;;;;;;;;1.00;1.00;;;;;;;;5069988;27;45255;-72
2022/08/29 02:46:29;;;;;;;;;1.33;1.33;;;;;;;;5048704;28;47425;-72
2022/08/29 02:48:54;;;;;;;;;1.00;1.00;;;;;;;;5063646;27;45280;-70
2022/08/29 02:51:21;;;;;;;;;1.00;1.00;;;;;;;;5067526;27;45462;-70
2022/08/29 02:53:47;;;;;;;;;1.00;1.00;;;;;;;;5062232;27;45929;-69
2022/08/29 02:56:12;;;;;;;;;1.67;1.67;;;;;;;;5064021;27;45479;-68
2022/08/29 02:58:38;;;;;;;;;4.67;2.00;;;;;;;;5058927;27;45710;-70
2022/08/29 03:01:03;;;;;;;;;2.00;1.00;;;;;;;;5046053;27;45433;-69
2022/08/29 03:03:28;;;;;;;;;1.00;1.00;;;;;;;;5058634;27;45345;-68
2022/08/29 03:05:55;;;;;;;;;1.33;1.33;;;;;;;;5046350;28;47248;-70
2022/08/29 03:08:20;;;;;;;;;3.00;2.00;;;;;;;;5059267;27;45349;-68
2022/08/29 03:10:46;;;;;;;;;1.33;1.00;;;;;;;;5065991;27;45609;-71
2022/08/29 03:13:11;;;;;;;;;2.00;2.00;;;;;;;;5063523;27;45874;-71
2022/08/29 03:15:36;;;;;;;;;3.00;2.00;;;;;;;;5065293;27;46097;-71
2022/08/29 03:18:02;;;;;;;;;1.67;1.67;;;;;;;;5059407;27;45322;-69
2022/08/29 03:20:27;;;;;;;;;2.00;2.00;;;;;;;;5062541;27;45321;-70
2022/08/29 03:22:53;;;;;;;;;0.67;0.67;;;;;;;;5054902;28;45990;-71
2022/08/29 03:25:20;;;;;;;;;2.00;1.00;;;;;;;;5070838;28;45591;-70
2022/08/29 03:27:45;;;;;;;;;2.67;2.67;;;;;;;;5057382;28;45589;-70
2022/08/29 03:30:11;;;;;;;;;2.00;1.67;;;;;;;;5062755;28;45274;-71
2022/08/29 03:32:37;;;;;;;;;1.00;1.00;;;;;;;;5076481;27;45560;-71
2022/08/29 03:35:02;;;;;;;;;2.33;1.67;;;;;;;;5061416;28;46301;-70
2022/08/29 03:37:28;;;;;;;;;1.00;1.00;;;;;;;;5066686;28;45344;-70
2022/08/29 03:39:53;;;;;;;;;3.00;2.00;;;;;;;;5070405;28;45501;-70
2022/08/29 03:42:19;;;;;;;;;2.00;1.00;;;;;;;;5056984;28;45745;-70
2022/08/29 03:44:44;;;;;;;;;2.67;1.00;;;;;;;;5073123;27;45759;-71
2022/08/29 03:47:10;;;;;;;;;1.00;1.00;;;;;;;;5076939;28;45752;-69
2022/08/29 03:49:35;;;;;;;;;1.00;1.00;;;;;;;;5061412;27;45689;-72
2022/08/29 03:52:00;;;;;;;;;1.00;1.00;;;;;;;;5057489;28;45772;-71
2022/08/29 03:54:26;;;;;;;;;3.00;2.00;;;;;;;;5073358;27;46654;-71
2022/08/29 03:56:51;;;;;;;;;2.00;2.00;;;;;;;;5059046;28;45393;-71
2022/08/29 03:59:17;;;;;;;;;2.00;2.00;;;;;;;;5077353;27;45652;-70
2022/08/29 04:01:43;;;;;;;;;0.67;0.67;;;;;;;;5077332;28;45234;-71
2022/08/29 04:06:38;;;;;;;;;2.00;2.00;;;;;;;;5074560;28;45344;-70
2022/08/29 04:09:03;;;;;;;;;2.00;2.00;;;;;;;;5075975;27;45210;-70
2022/08/29 04:11:28;;;;;;;;;1.00;1.00;;;;;;;;5057936;28;46103;-70
2022/08/29 04:13:54;;;;;;;;;1.00;1.00;;;;;;;;5059332;28;47415;-69
2022/08/29 04:16:20;;;;;;;;;2.67;2.33;;;;;;;;5076697;27;45377;-69
2022/08/29 04:18:46;;;;;;;;;2.00;1.00;;;;;;;;5076924;28;45567;-70
2022/08/29 04:21:11;;;;;;;;;2.00;2.00;;;;;;;;5057904;28;45779;-70
2022/08/29 04:23:37;;;;;;;;;4.00;2.00;;;;;;;;5073593;27;46149;-69
2022/08/29 04:26:03;;;;;;;;;3.33;1.00;;;;;;;;5057318;28;45859;-69
2022/08/29 04:28:28;;;;;;;;;2.67;1.00;;;;;;;;5057135;28;45542;-70
2022/08/29 04:30:54;;;;;;;;;2.00;2.00;;;;;;;;5066103;27;45389;-68
2022/08/29 04:33:20;;;;;;;;;3.67;3.00;;;;;;;;5074509;27;46389;-70
2022/08/29 04:35:45;;;;;;;;;2.67;2.67;;;;;;;;5164983;22;46393;-69
2022/08/29 04:38:10;;;;;;;;;2.67;2.67;;;;;;;;5053523;28;45386;-70
2022/08/29 04:40:37;;;;;;;;;2.00;2.00;;;;;;;;5076172;28;45393;-69
2022/08/29 04:43:02;;;;;;;;;3.33;2.33;;;;;;;;5069027;28;46536;-70
2022/08/29 04:45:27;;;;;;;;;3.67;1.00;;;;;;;;5055150;28;45451;-69
2022/08/29 04:47:53;;;;;;;;;1.00;1.00;;;;;;;;5073928;27;45674;-70
2022/08/29 04:50:19;;;;;;;;;1.33;1.33;;;;;;;;5075272;27;45461;-70
2022/08/29 04:52:45;;;;;;;;;1.00;0.33;;;;;;;;5074711;28;46465;-69
2022/08/29 04:55:11;;;;;;;;;2.00;2.00;;;;;;;;5078949;27;45565;-69
2022/08/29 04:57:37;;;;;;;;;3.00;2.00;;;;;;;;5076807;27;45450;-70
2022/08/29 05:00:03;;;;;;;;;1.67;1.67;;;;;;;;5083855;27;45621;-70
2022/08/29 05:02:29;;;;;;;;;3.00;2.00;;;;;;;;5072615;27;46414;-69
2022/08/29 05:04:55;;;;;;;;;2.00;2.00;;;;;;;;5074564;27;45729;-62
2022/08/29 05:07:22;;;;;;;;;4.33;3.33;;;;;;;;5074691;27;45476;-63
2022/08/29 05:09:54;;;;;;;;;5.67;4.67;;;;;;;;5075180;28;45480;-62
2022/08/29 05:12:20;;;;;;;;;2.00;2.00;;;;;;;;5067993;27;46627;-64
2022/08/29 05:14:45;;;;;;;;;2.00;2.00;;;;;;;;5046995;28;45746;-63
2022/08/29 05:17:10;;;;;;;;;3.00;1.67;;;;;;;;5071029;28;45447;-63
2022/08/29 05:19:36;;;;;;;;;4.00;2.00;;;;;;;;5060464;28;46051;-63
2022/08/29 05:22:01;;;;;;;;;6.33;3.00;;;;;;;;5057713;28;45301;-64
2022/08/29 05:24:27;;;;;;;;;4.00;3.00;;;;;;;;5060096;27;45413;-65
2022/08/29 05:26:52;;;;;;;;;5.33;4.00;;;;;;;;5070479;28;46606;-65
2022/08/29 05:29:19;;;;;;;;;11.33;8.67;;;;;;;;5070197;27;45294;-64
2022/08/29 05:31:45;;;;;;;;;5.33;5.33;;;;;;;;5072267;27;45705;-62
2022/08/29 05:34:11;;;;;;;;;6.33;3.33;;;;;;;;5052324;27;45621;-61
2022/08/29 05:36:36;;;;;;;;;6.33;4.67;;;;;;;;5072025;27;45977;-62
2022/08/29 05:39:02;;;;;;;;;3.00;3.00;;;;;;;;5072651;27;45888;-64
2022/08/29 05:41:27;;;;;;;;;5.67;4.00;;;;;;;;5063904;27;45527;-63
2022/08/29 05:43:53;;;;;;;;;6.67;3.67;;;;;;;;5057558;28;45453;-64
2022/08/29 05:46:18;;;;;;;;;7.67;3.33;;;;;;;;5074121;28;45462;-61
2022/08/29 05:48:44;;;;;;;;;3.67;1.67;;;;;;;;5073026;27;45744;-63
2022/08/29 05:51:19;;;;;;;;;3.00;2.67;;;;;;;;5069893;27;46339;-64
2022/08/29 05:53:45;;;;;;;;;4.67;3.00;;;;;;;;5065908;27;45452;-63
2022/08/29 05:56:10;;;;;;;;;5.00;5.00;;;;;;;;5062979;27;45383;-61
2022/08/29 05:58:35;;;;;;;;;6.00;3.00;;;;;;;;5055556;27;45615;-63
2022/08/29 06:01:00;;;;;;;;;2.33;2.33;;;;;;;;5056323;27;46674;-62
2022/08/29 06:03:26;;;;;;;;;3.33;2.33;;;;;;;;5060136;27;45787;-66
2022/08/29 06:05:51;;;;;;;;;7.00;5.33;;;;;;;;5059155;27;45768;-64
2022/08/29 06:08:17;;;;;;;;;3.33;3.33;;;;;;;;5063974;28;45546;-64
2022/08/29 06:10:44;;;;;;;;;5.67;3.00;;;;;;;;5059687;27;46781;-62
2022/08/29 06:13:09;;;;;;;;;6.33;3.67;;;;;;;;5057865;27;45910;-62
2022/08/29 06:15:34;;;;;;;;;5.33;2.00;;;;;;;;5057764;27;45840;-64
2022/08/29 06:18:00;;;;;;;;;37.33;31.33;;;;;;;;5058582;27;45425;-61
2022/08/29 06:20:25;;;;;;;;;6.33;3.67;;;;;;;;5054270;27;46452;-62
2022/08/29 06:22:50;;;;;;;;;4.00;2.33;;;;;;;;5059588;27;45408;-64
2022/08/29 06:25:15;;;;;;;;;7.25;2.00;;;;;;;;5067146;27;45352;-64
2022/08/29 06:27:41;;;;;;;;;3.00;3.00;;;;;;;;5059116;27;45654;-64
2022/08/29 06:30:06;;;;;;;;;6.00;3.00;;;;;;;;5058555;28;46828;-62
2022/08/29 06:32:32;;;;;;;;;2.33;1.67;;;;;;;;5061790;27;45530;-63
2022/08/29 06:34:57;;;;;;;;;3.75;2.75;;;;;;;;5061246;27;45583;-62
2022/08/29 06:37:22;;;;;;;;;1.75;1.75;;;;;;;;5067172;28;45393;-63
2022/08/29 06:39:47;;;;;;;;;4.00;1.25;;;;;;;;5067595;28;46186;-64
2022/08/29 06:42:13;;;;;;;;;2.00;1.00;;;;;;;;5066545;28;45753;-62
2022/08/29 06:44:38;;;;;;;;;3.00;2.33;;;;;;;;5066703;27;45562;-62
2022/08/29 06:47:03;;;;;;;;;2.00;2.00;;;;;;;;5073668;28;45855;-62
2022/08/29 06:49:28;;;;;;;;;3.00;2.00;;;;;;;;5058911;27;45611;-63
2022/08/29 06:51:54;;;;;;;;;4.67;3.00;;;;;;;;5059975;27;45486;-62
2022/08/29 06:54:21;;;;;;;;;6.33;3.00;;;;;;;;5064500;28;45843;-63
2022/08/29 06:56:46;;;;;;;;;2.33;2.33;;;;;;;;5067358;27;45551;-62
2022/08/29 06:59:12;;;;;;;;;3.33;1.67;;;;;;;;5063631;27;45999;-63
2022/08/29 07:01:38;;;;;;;;;3.67;2.33;;;;;;;;5063228;27;45373;-63
2022/08/29 07:04:03;;;;;;;;;12.67;8.67;;;;;;;;5062148;27;45402;-62
2022/08/29 07:06:29;;;;;;;;;2.67;2.00;;;;;;;;5058068;27;45454;-63
2022/08/29 07:08:55;;;;;;;;;4.25;3.75;;;;;;;;5077712;27;46524;-65
2022/08/29 07:11:20;;;;;;;;;2.75;2.75;;;;;;;;5064744;28;45410;-63
2022/08/29 07:13:45;;;;;;;;;2.75;2.75;;;;;;;;5063588;28;45588;-63
2022/08/29 07:16:13;;;;;;;;;3.00;2.00;;;;;;;;5062701;28;45393;-61
2022/08/29 07:18:38;;;;;;;;;4.00;2.00;;;;;;;;5073071;27;46032;-62
2022/08/29 07:21:05;;;;;;;;;3.75;2.75;;;;;;;;5065815;27;45377;-66
2022/08/29 07:23:30;;;;;;;;;2.75;2.75;;;;;;;;5073364;27;45458;-60
2022/08/29 07:26:05;;;;;;;;;4.25;2.25;;;;;;;;5076109;28;45312;-62
2022/08/29 07:28:33;;;;;;;;;3.75;2.75;;;;;;;;5075866;27;45566;-61
2022/08/29 07:30:58;;;;;;;;;1.25;1.25;;;;;;;;5074388;27;45379;-61
2022/08/29 07:33:24;;;;;;;;;3.75;3.00;;;;;;;;5075627;28;45467;-65
2022/08/29 07:35:50;;;;;;;;;2.25;2.25;;;;;;;;5059327;27;45511;-62
2022/08/29 07:38:15;;;;;;;;;1.50;1.00;;;;;;;;5060081;27;46314;-63
2022/08/29 07:40:42;;;;;;;;;3.50;2.00;;;;;;;;5064687;27;45551;-62
2022/08/29 07:43:07;;;;;;;;;2.50;2.00;;;;;;;;5069227;27;45772;-62
2022/08/29 07:45:32;;;;;;;;;2.25;1.25;;;;;;;;5069437;27;45408;-65
2022/08/29 07:47:57;;;;;;;;;5.25;2.00;;;;;;;;5066016;27;45972;-62
2022/08/29 07:50:23;;;;;;;;;2.50;2.00;;;;;;;;5062918;27;45453;-63
2022/08/29 07:52:48;;;;;;;;;2.00;1.00;;;;;;;;5068406;27;45850;-63
2022/08/29 07:55:13;;;;;;;;;2.00;1.00;;;;;;;;5065409;27;46089;-63
2022/08/29 07:57:39;;;;;;;;;3.25;2.25;;;;;;;;5069448;28;46201;-70
2022/08/29 08:00:06;;;;;;;;;2.75;2.00;;;;;;;;5071539;28;45546;-64
2022/08/29 08:02:31;;;;;;;;;1.75;1.25;;;;;;;;5056685;28;45457;-63
2022/08/29 08:04:57;;;;;;;;;1.00;1.00;;;;;;;;5044271;28;46794;-62
2022/08/29 08:07:22;;;;;;;;;2.25;2.00;;;;;;;;5070362;27;45940;-64
2022/08/29 08:09:47;;;;;;;;;5.67;4.00;;;;;;;;5064115;27;45385;-62
2022/08/29 08:12:13;;;;;;;;;5.67;2.00;;;;;;;;5058757;27;45695;-63
2022/08/29 08:14:38;;;;;;;;;4.00;2.00;;;;;;;;5073252;27;45704;-63
2022/08/29 08:17:03;;;;;;;;;3.00;1.33;;;;;;;;5063223;28;45514;-62
2022/08/29 08:19:29;;;;;;;;;3.00;2.67;;;;;;;;5054164;28;45728;-64
2022/08/29 08:21:55;;;;;;;;;2.00;2.00;;;;;;;;5063322;27;45525;-63
2022/08/29 08:24:20;;;;;;;;;3.67;2.67;;;;;;;;5053690;27;45571;-62
2022/08/29 08:26:46;;;;;;;;;2.00;2.00;;;;;;;;5073163;27;45558;-64
2022/08/29 08:29:11;;;;;;;;;4.00;2.00;;;;;;;;5069902;27;45728;-63
2022/08/29 08:31:43;;;;;;;;;4.00;3.00;;;;;;;;5070942;28;45681;-63
2022/08/29 08:34:10;;;;;;;;;3.33;2.33;;;;;;;;5064155;27;45786;-64
2022/08/29 08:36:37;;;;;;;;;5.00;3.67;;;;;;;;5066636;27;46452;-63
2022/08/29 08:39:03;;;;;;;;;5.67;4.00;;;;;;;;5052978;27;45579;-65
2022/08/29 08:41:48;;;;;;;;;2.67;2.00;;;;;;;;5068310;27;45764;-66
2022/08/29 08:44:25;;;;;;;;;6.00;3.00;;;;;;;;5072394;28;45452;-63
2022/08/29 08:46:53;;;;;;;;;2.33;0.67;;;;;;;;5059786;28;46053;-63
2022/08/29 08:49:23;;;;;;;;;4.00;3.00;;;;;;;;5071427;27;45759;-62
2022/08/29 08:51:56;;;;;;;;;2.00;2.00;;;;;;;;5045039;27;45693;-62
2022/08/29 08:54:24;;;;;;;;;3.50;1.25;;;;;;;;5058947;28;46042;-61
2022/08/29 08:57:07;;;;;;;;;6.75;4.00;;;;;;;;5072807;27;45675;-62
2022/08/29 08:59:41;;;;;;;;;4.25;3.00;;;;;;;;5054900;28;45418;-62
2022/08/29 09:02:22;;;;;;;;;3.00;3.00;;;;;;;;5070286;28;45801;-62
2022/08/29 09:04:53;;;;;;;;;2.00;2.00;;;;;;;;5056842;27;45819;-62
2022/08/29 09:07:38;;;;;;;;;5.00;2.25;;;;;;;;5071046;28;46528;-63
2022/08/29 09:10:06;;;;;;;;;2.50;2.25;;;;;;;;5073621;27;45825;-64
2022/08/29 09:12:31;;;;;;;;;5.25;3.00;;;;;;;;5054236;28;45593;-66
2022/08/29 09:15:03;;;;;;;;;2.25;2.25;;;;;;;;5045032;28;46750;-65
2022/08/29 09:17:47;;;;;;;;;2.00;2.00;;;;;;;;5072451;27;45967;-66
2022/08/29 09:20:15;;;;;;;;;3.00;3.00;;;;;;;;5043219;28;45516;-64
2022/08/29 09:22:44;;;;;;;;;4.00;3.00;;;;;;;;5063260;28;45372;-66
2022/08/29 09:25:10;;;;;;;;;4.75;4.00;;;;;;;;5057327;28;45603;-65
2022/08/29 09:27:36;;;;;;;;;2.00;1.00;;;;;;;;5067445;27;45400;-65
2022/08/29 09:30:04;;;;;;;;;3.50;3.50;;;;;;;;5043389;28;45440;-64
2022/08/29 09:32:30;;;;;;;;;4.00;3.00;;;;;;;;5060699;28;45355;-64
2022/08/29 09:34:55;;;;;;;;;3.00;2.00;;;;;;;;5066611;27;45348;-66
2022/08/29 09:37:23;;;;;;;;;2.00;2.00;;;;;;;;5063746;27;45458;-65
2022/08/29 09:39:59;;;;;;;;;3.25;3.25;;;;;;;;5062641;27;45363;-65
2022/08/29 09:42:28;;;;;;;;;2.75;2.00;;;;;;;;5060619;27;45610;-65
2022/08/29 09:44:56;;;;;;;;;1.75;1.75;;;;;;;;5059861;28;45926;-65
2022/08/29 09:47:23;;;;;;;;;2.50;2.50;;;;;;;;5054389;27;45869;-66
2022/08/29 09:50:07;;;;;;;;;4.00;2.00;;;;;;;;5044674;28;45729;-64
2022/08/29 09:52:32;;;;;;;;;1.75;1.75;;;;;;;;5062362;28;45342;-64
2022/08/29 09:55:14;;;;;;;;;1.50;1.50;;;;;;;;5058179;28;45753;-65
2022/08/29 09:57:39;;;;;;;;;3.25;3.25;;;;;;;;5062776;27;45458;-66
2022/08/29 10:00:22;;;;;;;;;4.00;2.50;;;;;;;;5062774;28;45729;-65
2022/08/29 10:02:48;;;;;;;;;3.25;2.00;;;;;;;;5046635;28;45898;-66
2022/08/29 10:05:43;;;;;;;;;1.75;1.25;;;;;;;;5070588;27;46279;-66
2022/08/29 10:08:27;;;;;;;;;4.00;2.50;;;;;;;;5046956;27;46506;-65
2022/08/29 10:10:54;;;;;;;;;4.00;4.00;;;;;;;;5041196;28;45711;-66
2022/08/29 10:13:26;;;;;;;;;4.25;4.25;;;;;;;;5054715;28;45321;-65
2022/08/29 10:16:01;;;;;;;;;2.50;2.50;;;;;;;;5071662;28;45484;-64
2022/08/29 10:18:27;;;;;;;;;3.75;3.75;;;;;;;;5067462;28;45779;-65
2022/08/29 10:21:11;;;;;;;;;5.75;4.25;;;;;;;;5055458;27;45480;-67
2022/08/29 10:23:57;;;;;;;;;6.00;4.00;;;;;;;;5067874;27;45643;-65
2022/08/29 10:26:41;;;;;;;;;3.00;2.25;;;;;;;;5052234;28;45927;-65
2022/08/29 10:29:13;;;;;;;;;5.00;3.00;;;;;;;;5065460;28;45726;-65
2022/08/29 10:31:45;;;;;;;;;4.50;4.50;;;;;;;;5050846;27;45612;-67
2022/08/29 10:34:10;;;;;;;;;7.25;3.75;;;;;;;;5057500;27;45805;-65
2022/08/29 10:36:37;;;;;;;;;5.50;5.00;;;;;;;;5060256;27;45431;-64
2022/08/29 10:39:02;;;;;;;;;3.00;3.00;;;;;;;;5056388;27;45918;-65
2022/08/29 10:41:28;;;;;;;;;3.50;3.50;;;;;;;;5053790;27;45669;-68
2022/08/29 10:43:53;;;;;;;;;4.75;3.75;;;;;;;;5036448;27;45761;-66
2022/08/29 10:46:21;;;;;;;;;3.00;2.50;;;;;;;;5053063;27;45971;-66
2022/08/29 10:48:58;;;;;;;;;3.00;3.00;;;;;;;;5058563;27;45826;-66
2022/08/29 10:51:41;;;;;;;;;3.25;3.00;;;;;;;;5056943;27;45794;-65
2022/08/29 10:54:18;;;;;;;;;4.50;3.75;;;;;;;;5062459;27;45436;-65
2022/08/29 10:56:45;;;;;;;;;4.00;4.00;;;;;;;;5053547;27;45852;-65
2022/08/29 10:59:26;;;;;;;;;4.75;3.50;;;;;;;;5069196;27;46363;-65
2022/08/29 11:02:09;;;;;;;;;3.50;3.25;;;;;;;;5060457;28;45510;-66
2022/08/29 11:04:49;;;;;;;;;3.00;3.00;;;;;;;;5046868;28;45730;-66
2022/08/29 11:07:15;;;;;;;;;4.50;3.75;;;;;;;;5047647;28;45939;-65
2022/08/29 11:10:09;;;;;;;;;5.75;4.00;;;;;;;;5056770;27;45968;-65
2022/08/29 11:12:35;;;;;;;;;4.00;3.00;;;;;;;;5040533;28;46078;-67
2022/08/29 11:15:03;;;;;;;;;5.00;3.50;;;;;;;;5064528;27;46037;-65
2022/08/29 11:17:32;;;;;;;;;4.00;4.00;;;;;;;;5062180;28;45664;-65
2022/08/29 11:20:01;;;;;;;;;3.50;3.50;;;;;;;;5057786;27;46334;-67
2022/08/29 11:22:32;;;;;;;;;3.00;3.00;;;;;;;;5068117;28;45495;-65
2022/08/29 11:25:00;;;;;;;;;7.00;3.25;;;;;;;;5049327;28;45442;-65
2022/08/29 11:27:35;;;;;;;;;3.75;2.50;;;;;;;;5051506;28;46100;-64
2022/08/29 11:30:01;;;;;;;;;9.50;5.75;;;;;;;;5066251;27;45508;-64
2022/08/29 11:32:37;;;;;;;;;5.33;3.33;;;;;;;;5065836;28;45736;-65
2022/08/29 11:35:07;;;;;;;;;3.25;3.25;;;;;;;;5048848;28;45578;-63
2022/08/29 11:37:45;;;;;;;;;5.50;3.00;;;;;;;;5024044;28;47523;-66
2022/08/29 11:40:28;;;;;;;;;6.00;4.00;;;;;;;;5040681;28;45523;-65
2022/08/29 11:42:58;;;;;;;;;6.75;5.00;;;;;;;;5027263;28;45665;-64
2022/08/29 11:45:28;;;;;;;;;6.50;5.00;;;;;;;;5033183;28;45767;-64
2022/08/29 11:48:15;;;;;;;;;8.00;5.00;;;;;;;;5034711;28;46137;-64
2022/08/29 11:50:41;;;;;;;;;3.50;3.00;;;;;;;;5026102;28;48208;-66
2022/08/29 11:53:12;;;;;;;;;5.00;3.75;;;;;;;;5043695;28;45449;-63
2022/08/29 11:55:38;;;;;;;;;4.00;4.00;;;;;;;;5041093;28;45913;-63
2022/08/29 11:58:23;;;;;;;;;4.33;4.33;;;;;;;;5024008;28;46203;-65
2022/08/29 12:00:52;;;;;;;;;2.00;2.00;;;;;;;;5021330;28;45480;-65
2022/08/29 12:03:33;;;;;;;;;5.50;4.00;;;;;;;;5034800;28;45745;-64
2022/08/29 12:05:59;;;;;;;;;7.00;5.00;;;;;;;;5041096;28;45444;-64
2022/08/29 12:08:32;;;;;;;;;7.33;6.33;;;;;;;;5039989;28;45474;-65
2022/08/29 12:10:58;;;;;;;;;7.67;6.67;;;;;;;;5043604;28;45913;-64
2022/08/29 12:13:42;;;;;;;;;3.33;3.00;;;;;;;;5045977;28;45836;-64
2022/08/29 12:16:10;;;;;;;;;7.00;6.00;;;;;;;;5036582;28;45363;-65
2022/08/29 12:18:43;;;;;;;;;4.33;4.33;;;;;;;;5052046;28;45402;-64
2022/08/29 12:21:27;;;;;;;;;6.67;6.67;;;;;;;;5054914;28;45342;-65
2022/08/29 12:23:52;;;;;;;;;3.33;3.33;;;;;;;;5051810;28;45305;-64
2022/08/29 12:26:38;;;;;;;;;24.33;22.33;;;;;;;;5036606;28;45323;-64
2022/08/29 12:29:03;;;;;;;;;7.00;7.00;;;;;;;;5050978;28;45459;-67
2022/08/29 12:31:47;;;;;;;;;4.33;4.33;;;;;;;;5051183;28;46334;-63
2022/08/29 12:34:21;;;;;;;;;5.00;5.00;;;;;;;;5055312;28;45695;-68
2022/08/29 12:36:53;;;;;;;;;3.67;3.67;;;;;;;;5069815;27;45377;-69
2022/08/29 12:39:37;;;;;;;;;7.00;4.33;;;;;;;;5076576;28;45767;-66
2022/08/29 12:42:18;;;;;;;;;5.50;4.50;;;;;;;;5074714;28;46316;-66
2022/08/29 12:44:44;;;;;;;;;4.67;4.00;;;;;;;;5068114;27;45450;-65
2022/08/29 12:47:11;;;;;;;;;6.50;5.50;;;;;;;;5051346;28;45512;-68
2022/08/29 12:49:47;;;;;;;;;4.67;4.67;;;;;;;;5052132;28;45552;-70
2022/08/29 12:52:23;;;;;;;;;8.00;4.33;;;;;;;;5065894;28;46167;-68
2022/08/29 12:54:48;;;;;;;;;5.33;5.00;;;;;;;;5068543;28;45386;-68
2022/08/29 12:57:18;;;;;;;;;4.33;3.67;;;;;;;;5063774;27;45704;-64
2022/08/29 12:59:45;;;;;;;;;6.25;4.00;;;;;;;;5048313;28;46900;-65
2022/08/29 13:02:20;;;;;;;;;4.67;4.67;;;;;;;;5068643;27;45774;-65
2022/08/29 13:04:45;;;;;;;;;5.00;4.00;;;;;;;;5073487;28;45823;-64
2022/08/29 13:07:15;;;;;;;;;6.33;6.33;;;;;;;;5073894;28;45638;-66
2022/08/29 13:09:41;;;;;;;;;7.00;7.00;;;;;;;;5073049;27;45781;-65
2022/08/29 13:12:08;;;;;;;;;5.33;5.33;;;;;;;;5072831;27;45638;-64
2022/08/29 13:14:44;;;;;;;;;11.00;8.33;;;;;;;;5057872;28;45577;-65
2022/08/29 13:17:14;;;;;;;;;5.00;5.00;;;;;;;;5074219;27;45670;-65
2022/08/29 13:19:39;;;;;;;;;6.33;6.33;;;;;;;;5074793;28;45441;-65
2022/08/29 13:22:05;;;;;;;;;8.33;7.00;;;;;;;;5045238;28;47451;-65
2022/08/29 13:24:30;;;;;;;;;5.00;5.00;;;;;;;;5075069;28;45647;-65
2022/08/29 13:26:57;;;;;;;;;8.33;4.67;;;;;;;;5071668;28;45801;-66
2022/08/29 13:29:28;;;;;;;;;5.00;5.00;;;;;;;;5074664;27;45462;-66
2022/08/29 13:32:08;;;;;;;;;5.33;5.33;;;;;;;;5070906;28;46648;-64
2022/08/29 13:34:33;;;;;;;;;4.33;4.33;;;;;;;;5052707;28;45615;-65
2022/08/29 13:37:18;;;;;;;;;8.67;6.00;;;;;;;;5050679;28;45283;-66
2022/08/29 13:39:45;;;;;;;;;6.33;6.33;;;;;;;;5068198;28;45778;-65
2022/08/29 13:42:15;;;;;;;;;5.67;4.33;;;;;;;;5062882;27;46107;-64
2022/08/29 13:45:00;;;;;;;;;8.00;6.67;;;;;;;;5069555;28;45713;-65
2022/08/29 13:47:27;;;;;;;;;6.00;6.00;;;;;;;;5055654;28;45528;-65
2022/08/29 13:49:57;;;;;;;;;7.33;6.00;;;;;;;;5055440;28;46214;-66
2022/08/29 13:52:23;;;;;;;;;7.00;7.00;;;;;;;;5064440;28;45373;-64
2022/08/29 13:54:48;;;;;;;;;7.67;6.00;;;;;;;;5070114;28;45535;-65
2022/08/29 13:57:16;;;;;;;;;8.00;6.00;;;;;;;;5066907;28;45565;-67
2022/08/29 13:59:41;;;;;;;;;5.00;5.00;;;;;;;;5063184;27;45282;-67
2022/08/29 14:02:06;;;;;;;;;7.67;7.67;;;;;;;;5053017;28;47702;-66
2022/08/29 14:04:32;;;;;;;;;7.67;6.00;;;;;;;;5073639;27;45701;-66
2022/08/29 14:06:58;;;;;;;;;6.25;6.25;;;;;;;;5075193;28;45673;-68
2022/08/29 14:09:26;;;;;;;;;5.67;5.67;;;;;;;;5058694;28;45460;-66
2022/08/29 14:11:51;;;;;;;;;6.67;6.00;;;;;;;;5070113;28;45776;-66
2022/08/29 14:14:17;;;;;;;;;6.33;6.33;;;;;;;;5060140;28;46485;-65
2022/08/29 14:16:42;;;;;;;;;6.33;5.33;;;;;;;;5068588;28;45727;-66
2022/08/29 14:19:08;;;;;;;;;5.33;5.33;;;;;;;;5061795;27;45508;-70
2022/08/29 14:21:33;;;;;;;;;6.50;6.50;;;;;;;;5041434;28;46164;-69
2022/08/29 14:23:58;;;;;;;;;8.33;6.67;;;;;;;;5048081;28;45796;-66
2022/08/29 14:26:24;;;;;;;;;6.00;5.00;;;;;;;;5057454;28;45908;-67
2022/08/29 14:28:51;;;;;;;;;8.00;5.33;;;;;;;;5065099;27;45435;-66
2022/08/29 14:31:16;;;;;;;;;6.33;5.00;;;;;;;;5050042;28;47383;-67
2022/08/29 14:33:42;;;;;;;;;7.00;6.00;;;;;;;;5065054;28;45620;-66
2022/08/29 14:36:07;;;;;;;;;6.33;6.00;;;;;;;;5049863;28;45816;-66
2022/08/29 14:38:32;;;;;;;;;7.25;6.75;;;;;;;;5064452;27;46007;-65
2022/08/29 14:40:57;;;;;;;;;6.00;6.00;;;;;;;;5063460;27;46128;-67
2022/08/29 14:43:23;;;;;;;;;7.00;6.00;;;;;;;;5049477;28;45311;-66
2022/08/29 14:45:50;;;;;;;;;6.25;5.00;;;;;;;;5050610;28;45932;-66
2022/08/29 14:48:15;;;;;;;;;6.00;5.00;;;;;;;;5063747;28;45531;-64
2022/08/29 14:50:40;;;;;;;;;6.00;6.00;;;;;;;;5066308;27;45462;-65
2022/08/29 14:53:06;;;;;;;;;7.00;6.00;;;;;;;;5069745;28;45512;-64